createdAt,value
2019-02-23T00:01:52.318Z,98.10
2019-02-23T00:04:29.289Z,87.00
2019-02-23T00:07:06.449Z,95.60
2019-02-23T00:09:43.963Z,85.20
2019-02-23T00:12:22.358Z,84.40
2019-02-23T00:14:59.411Z,84.60
2019-02-23T00:17:36.589Z,94.30
2019-02-23T00:20:13.663Z,94.20
2019-02-23T00:27:59.966Z,93.30
2019-02-23T00:30:38.030Z,93.40
2019-02-23T00:33:15.044Z,94.90
2019-02-23T00:35:52.074Z,93.40
2019-02-23T00:38:29.235Z,93.20
2019-02-23T00:41:06.329Z,93.60
2019-02-23T00:43:46.087Z,93.50
2019-02-23T00:46:23.307Z,89.30
2019-02-23T00:49:00.274Z,93.70
2019-02-23T00:51:37.387Z,93.70
2019-02-23T00:54:14.473Z,94.00
2019-02-23T00:59:26.247Z,95.20
2019-02-23T01:02:03.416Z,84.00
2019-02-23T01:04:40.558Z,84.10
2019-02-23T01:07:17.685Z,84.70
2019-02-23T01:09:54.866Z,85.50
2019-02-23T01:12:33.227Z,85.30
2019-02-23T01:15:10.652Z,85.80
2019-02-23T01:17:49.598Z,94.00
2019-02-23T01:20:26.106Z,93.90
2019-02-23T01:23:03.168Z,82.70
2019-02-23T01:25:40.286Z,82.40
2019-02-23T01:28:18.320Z,82.30
2019-02-23T01:33:30.024Z,94.80
2019-02-23T01:36:07.251Z,92.70
2019-02-23T01:38:44.307Z,95.20
2019-02-23T01:41:21.464Z,96.80
2019-02-23T01:46:34.177Z,95.90
2019-02-23T01:49:11.182Z,96.50
2019-02-23T01:51:48.319Z,95.90
2019-02-23T01:54:25.510Z,95.80
2019-02-23T01:57:02.599Z,95.30
2019-02-23T01:59:39.800Z,95.40
2019-02-23T02:02:17.011Z,95.90
2019-02-23T02:07:30.295Z,96.30
2019-02-23T02:10:09.474Z,86.10
2019-02-23T02:12:46.746Z,86.40
2019-02-23T02:15:24.134Z,96.10
2019-02-23T02:18:01.921Z,96.40
2019-02-23T02:20:39.073Z,96.10
2019-02-23T02:23:16.254Z,85.20
2019-02-23T02:25:53.417Z,86.60
2019-02-23T02:28:30.540Z,95.20
2019-02-23T02:31:07.603Z,94.40
2019-02-23T02:34:04.129Z,93.30
2019-02-23T02:36:41.242Z,93.50
2019-02-23T02:39:20.367Z,95.40
2019-02-23T02:44:32.129Z,95.10
2019-02-23T02:47:09.226Z,95.90
2019-02-23T02:49:46.255Z,86.10
2019-02-23T02:52:23.346Z,86.00
2019-02-23T02:55:00.406Z,86.50
2019-02-23T02:57:37.414Z,87.80
2019-02-23T03:00:16.617Z,99.90
2019-02-23T03:02:53.722Z,87.90
2019-02-23T03:05:30.858Z,87.90
2019-02-23T03:08:07.999Z,88.60
2019-02-23T03:10:45.503Z,88.70
2019-02-23T03:13:22.575Z,89.00
2019-02-23T03:15:59.776Z,89.20
2019-02-23T03:18:36.860Z,88.80
2019-02-23T03:31:32.749Z,93.90
2019-02-23T03:34:10.243Z,91.00
2019-02-23T03:39:21.884Z,93.70
2019-02-23T03:42:00.191Z,93.50
2019-02-23T03:44:41.764Z,93.00
2019-02-23T03:47:18.906Z,94.60
2019-02-23T03:49:56.039Z,94.40
2019-02-23T03:55:07.663Z,93.30
2019-02-23T03:57:44.783Z,90.00
2019-02-23T04:00:22.420Z,93.20
2019-02-23T04:05:34.149Z,94.10
2019-02-23T04:10:47.531Z,94.30
2019-02-23T04:18:36.500Z,95.60
2019-02-23T04:23:48.611Z,95.00
2019-02-23T04:26:25.883Z,95.20
2019-02-23T04:29:03.243Z,95.50
2019-02-23T04:31:40.417Z,94.60
2019-02-23T04:34:17.557Z,93.50
2019-02-23T04:36:54.620Z,93.10
2019-02-23T04:39:33.171Z,92.80
2019-02-23T04:42:10.421Z,93.50
2019-02-23T04:44:47.449Z,91.70
2019-02-23T04:47:24.741Z,91.80
2019-02-23T04:50:02.432Z,91.40
2019-02-23T05:00:25.560Z,89.50
2019-02-23T05:03:03.016Z,91.00
2019-02-23T05:05:43.658Z,88.60
2019-02-23T05:08:21.161Z,91.20
2019-02-23T05:18:43.815Z,91.40
2019-02-23T05:21:26.210Z,91.10
2019-02-23T05:26:34.161Z,91.30
2019-02-23T05:29:11.969Z,91.20
2019-02-23T05:31:49.318Z,91.10
2019-02-23T05:34:27.791Z,91.70
2019-02-23T05:39:39.746Z,91.90
2019-02-23T05:42:16.754Z,91.60
2019-02-23T05:47:28.387Z,91.70
2019-02-23T05:52:40.298Z,92.40
2019-02-23T05:55:17.611Z,92.20
2019-02-23T06:00:29.575Z,93.50
2019-02-23T06:03:06.801Z,92.30
2019-02-23T06:05:43.901Z,93.40
2019-02-23T06:08:21.297Z,92.10
2019-02-23T06:10:58.487Z,90.70
2019-02-23T06:13:35.825Z,95.10
2019-02-23T06:18:48.243Z,95.30
2019-02-23T06:26:34.842Z,95.70
2019-02-23T06:29:12.121Z,95.70
2019-02-23T06:34:23.913Z,87.30
2019-02-23T06:39:46.698Z,94.10
2019-02-23T06:42:23.993Z,83.40
2019-02-23T06:45:01.226Z,95.50
2019-02-23T06:47:38.372Z,86.30
2019-02-23T06:50:15.540Z,86.80
2019-02-23T06:52:52.557Z,86.90
2019-02-23T06:55:29.928Z,98.30
2019-02-23T06:58:07.035Z,87.10
2019-02-23T07:00:45.790Z,88.30
2019-02-23T07:03:22.871Z,87.80
2019-02-23T07:06:00.019Z,88.30
2019-02-23T07:08:36.974Z,97.90
2019-02-23T07:11:14.285Z,86.90
2019-02-23T07:13:51.365Z,86.70
2019-02-23T07:16:28.916Z,87.40
2019-02-23T07:19:06.026Z,89.00
2019-02-23T07:21:44.505Z,90.60
2019-02-23T07:24:21.563Z,98.70
2019-02-23T07:26:58.898Z,98.80
2019-02-23T07:29:35.970Z,97.30
2019-02-23T07:34:48.019Z,97.40
2019-02-23T07:37:25.342Z,97.30
2019-02-23T07:40:02.417Z,99.10
2019-02-23T07:45:19.489Z,90.70
2019-02-23T07:50:31.350Z,96.10
2019-02-23T07:53:08.762Z,95.70
2019-02-23T07:55:45.948Z,95.00
2019-02-23T07:58:23.533Z,93.90
2019-02-23T08:01:01.034Z,84.00
2019-02-23T08:03:38.573Z,94.40
2019-02-23T08:06:15.737Z,82.90
2019-02-23T08:11:28.166Z,82.90
2019-02-23T08:14:05.322Z,83.80
2019-02-23T08:16:42.638Z,85.40
2019-02-23T08:19:22.019Z,99.90
2019-02-23T08:21:59.042Z,86.40
2019-02-23T08:24:36.430Z,87.00
2019-02-23T08:27:13.454Z,97.50
2019-02-23T08:29:50.778Z,97.00
2019-02-23T08:32:28.375Z,97.40
2019-02-23T08:35:07.916Z,88.60
2019-02-23T08:37:49.005Z,97.00
2019-02-23T08:40:26.661Z,88.20
2019-02-23T08:43:08.231Z,88.10
2019-02-23T08:45:47.807Z,88.20
2019-02-23T08:48:26.929Z,99.90
2019-02-23T08:51:06.608Z,88.10
2019-02-23T08:53:45.106Z,95.70
2019-02-23T08:56:35.012Z,95.40
2019-02-23T08:59:12.277Z,96.10
2019-02-23T09:01:50.951Z,97.10
2019-02-23T09:04:28.290Z,97.50
2019-02-23T09:07:05.868Z,97.90
2019-02-23T09:09:45.215Z,97.30
2019-02-23T09:12:27.235Z,97.50
2019-02-23T09:15:08.490Z,99.30
2019-02-23T09:17:47.482Z,99.10
2019-02-23T09:20:29.144Z,90.70
2019-02-23T09:23:03.866Z,98.40
2019-02-23T09:25:42.562Z,90.30
2019-02-23T09:28:31.261Z,89.80
2019-02-23T09:31:09.711Z,89.50
2019-02-23T09:33:48.887Z,89.30
2019-02-23T09:36:26.610Z,89.40
2019-02-23T09:39:06.405Z,89.10
2019-02-23T09:41:44.610Z,89.10
2019-02-23T09:44:22.126Z,89.30
2019-02-23T09:47:00.675Z,89.40
2019-02-23T09:49:39.664Z,89.00
2019-02-23T09:52:16.903Z,90.00
2019-02-23T09:54:54.187Z,90.10
2019-02-23T09:57:32.783Z,90.20
2019-02-23T10:00:14.662Z,90.30
2019-02-23T10:02:53.446Z,99.30
2019-02-23T10:05:32.106Z,99.90
2019-02-23T10:08:11.833Z,90.20
2019-02-23T10:10:49.638Z,90.10
2019-02-23T10:13:34.229Z,90.00
2019-02-23T10:16:14.435Z,89.70
2019-02-23T10:18:53.929Z,90.20
2019-02-23T10:21:31.787Z,90.00
2019-02-23T10:24:10.405Z,89.90
2019-02-23T10:26:49.891Z,97.30
2019-02-23T10:29:27.645Z,97.20
2019-02-23T10:32:09.256Z,96.80
2019-02-23T10:34:50.787Z,96.90
2019-02-23T10:37:30.055Z,97.00
2019-02-23T10:40:12.918Z,97.00
2019-02-23T10:42:55.253Z,93.00
2019-02-23T10:45:35.074Z,96.30
2019-02-23T10:48:20.091Z,92.80
2019-02-23T10:50:59.440Z,96.50
2019-02-23T10:56:11.305Z,96.70
2019-02-23T11:04:01.014Z,97.00
2019-02-23T11:06:38.632Z,96.00
2019-02-23T11:09:21.564Z,97.30
2019-02-23T11:17:08.777Z,97.10
2019-02-23T11:19:46.339Z,96.90
2019-02-23T11:22:24.789Z,96.60
2019-02-23T11:32:48.719Z,97.20
2019-02-23T11:38:00.983Z,97.50
2019-02-23T11:40:40.802Z,97.10
2019-02-23T11:43:19.549Z,96.90
2019-02-23T11:48:32.826Z,97.20
2019-02-23T11:51:10.105Z,96.90
2019-02-23T11:53:54.642Z,96.90
2019-02-23T11:56:25.623Z,95.20
2019-02-23T11:59:03.958Z,96.90
2019-02-23T12:01:41.271Z,96.70
2019-02-23T12:06:53.615Z,96.40
2019-02-23T12:09:30.790Z,96.90
2019-02-23T12:12:08.904Z,94.90
2019-02-23T12:14:45.915Z,96.60
2019-02-23T12:17:23.252Z,96.70
2019-02-23T12:20:00.476Z,96.20
2019-02-23T12:22:37.906Z,96.40
2019-02-23T12:25:16.226Z,96.70
2019-02-23T12:27:53.805Z,88.20
2019-02-23T12:30:32.732Z,85.90
2019-02-23T12:33:09.129Z,84.20
2019-02-23T12:35:46.288Z,80.90
2019-02-23T12:48:15.776Z,95.90
2019-02-23T12:50:53.318Z,76.60
2019-02-23T12:53:32.273Z,76.70
2019-02-23T12:56:11.984Z,98.20
2019-02-23T12:58:50.022Z,89.40
2019-02-23T14:24:17.969Z,72.80
2019-02-23T15:39:29.596Z,77.40
2019-02-23T15:42:38.412Z,57.90
2019-02-23T15:45:45.157Z,57.30
2019-02-23T15:51:20.777Z,57.90
2019-02-23T15:53:58.288Z,57.30
2019-02-23T15:56:40.498Z,57.20
2019-02-23T15:59:19.287Z,57.30
2019-02-23T16:01:56.938Z,57.90
2019-02-23T16:04:34.628Z,59.30
2019-02-23T16:07:13.035Z,59.00
2019-02-23T16:09:50.540Z,60.60
2019-02-23T16:12:29.435Z,62.00
2019-02-23T16:15:08.060Z,62.00
2019-02-23T16:17:47.641Z,62.50
2019-02-23T16:20:25.170Z,60.80
2019-02-23T16:23:04.616Z,59.80
2019-02-23T16:25:42.206Z,58.80
2019-02-23T16:28:20.061Z,58.80
2019-02-23T16:30:59.307Z,60.80
2019-02-23T16:33:36.584Z,61.70
2019-02-23T16:36:13.890Z,62.60
2019-02-23T16:38:51.566Z,70.00
2019-02-23T16:41:29.629Z,66.20
2019-02-23T16:44:07.141Z,67.50
2019-02-23T16:46:46.407Z,64.80
2019-02-23T16:49:23.195Z,59.20
2019-02-23T16:52:00.440Z,59.30
2019-02-23T16:54:41.234Z,58.80
2019-02-23T16:57:19.441Z,65.10
2019-02-23T16:59:56.820Z,62.30
2019-02-23T17:02:35.989Z,68.90
2019-02-23T17:05:12.720Z,61.30
2019-02-23T17:07:50.190Z,62.80
2019-02-23T17:10:27.517Z,63.80
2019-02-23T17:13:06.601Z,64.30
2019-02-23T17:15:44.211Z,65.00
2019-02-23T17:18:21.658Z,63.60
2019-02-23T17:21:00.636Z,63.00
2019-02-23T17:23:37.922Z,61.40
2019-02-23T17:26:17.181Z,60.60
2019-02-23T17:28:54.555Z,60.30
2019-02-23T17:31:32.041Z,60.00
2019-02-23T17:34:10.016Z,60.00
2019-02-23T17:36:47.657Z,60.10
2019-02-23T17:39:25.161Z,60.00
2019-02-23T17:42:02.522Z,60.30
2019-02-23T17:44:39.954Z,60.10
2019-02-23T17:47:17.396Z,59.70
2019-02-23T17:49:58.556Z,78.30
2019-02-23T17:52:37.546Z,59.30
2019-02-23T17:55:15.774Z,59.20
2019-02-23T17:57:53.633Z,60.20
2019-02-23T18:04:01.193Z,59.40
2019-02-23T18:06:38.218Z,60.20
2019-02-23T18:09:15.524Z,59.50
2019-02-23T18:11:52.543Z,59.10
2019-02-23T18:14:31.353Z,59.30
2019-02-23T18:17:08.485Z,58.80
2019-02-23T18:19:45.552Z,58.90
2019-02-23T18:22:22.823Z,76.50
2019-02-23T18:24:59.798Z,77.10
2019-02-23T18:27:36.887Z,59.60
2019-02-23T18:30:14.380Z,60.30
2019-02-23T18:32:52.297Z,61.00
2019-02-23T18:35:29.620Z,61.80
2019-02-23T18:38:06.748Z,62.00
2019-02-23T18:40:43.838Z,80.00
2019-02-23T18:43:20.864Z,62.00
2019-02-23T18:45:57.904Z,81.20
2019-02-23T18:48:36.327Z,80.90
2019-02-23T18:51:13.352Z,62.40
2019-02-23T18:53:50.383Z,62.10
2019-02-23T18:56:29.640Z,63.40
2019-02-23T18:59:05.733Z,63.70
2019-02-23T19:01:43.998Z,64.20
2019-02-23T19:04:21.046Z,65.00
2019-02-23T19:06:58.563Z,65.80
2019-02-23T19:09:35.573Z,66.30
2019-02-23T19:12:14.768Z,66.60
2019-02-23T19:14:51.035Z,65.80
2019-02-23T19:17:28.106Z,64.50
2019-02-23T19:20:05.148Z,62.50
2019-02-23T19:22:42.206Z,61.30
2019-02-23T19:25:19.338Z,60.80
2019-02-23T19:27:56.406Z,59.00
2019-02-23T19:30:33.474Z,79.10
2019-02-23T19:33:10.530Z,58.80
2019-02-23T19:35:47.536Z,59.00
2019-02-23T19:38:24.850Z,58.00
2019-02-23T19:41:01.848Z,57.90
2019-02-23T19:43:39.077Z,57.60
2019-02-23T19:46:16.202Z,57.60
2019-02-23T19:48:53.407Z,58.90
2019-02-23T19:51:30.458Z,60.00
2019-02-23T19:54:07.566Z,60.90
2019-02-23T19:56:46.800Z,61.10
2019-02-23T19:59:22.802Z,61.40
2019-02-23T20:01:59.840Z,61.70
2019-02-23T20:04:36.876Z,61.50
2019-02-23T20:07:13.883Z,61.80
2019-02-23T20:09:50.972Z,61.90
2019-02-23T20:12:28.241Z,62.30
2019-02-23T20:15:05.542Z,61.40
2019-02-23T20:17:42.577Z,60.90
2019-02-23T20:20:19.676Z,85.20
2019-02-23T20:22:56.731Z,61.90
2019-02-23T20:25:33.944Z,63.10
2019-02-23T20:28:10.984Z,63.60
2019-02-23T20:30:48.079Z,64.60
2019-02-23T20:33:25.153Z,65.20
2019-02-23T20:36:02.291Z,65.40
2019-02-23T20:38:39.585Z,86.90
2019-02-23T20:41:16.915Z,65.70
2019-02-23T20:43:54.044Z,82.00
2019-02-23T20:46:31.378Z,63.10
2019-02-23T20:49:08.491Z,78.20
2019-02-23T20:51:45.615Z,78.10
2019-02-23T20:54:22.628Z,60.10
2019-02-23T20:57:05.145Z,75.40
2019-02-23T20:59:37.939Z,58.20
2019-02-23T21:02:14.978Z,74.10
2019-02-23T21:04:52.062Z,57.40
2019-02-23T21:07:29.206Z,56.80
2019-02-23T21:10:06.630Z,78.00
2019-02-23T21:12:43.667Z,56.50
2019-02-23T21:15:20.852Z,56.50
2019-02-23T21:17:57.891Z,56.40
2019-02-23T21:20:34.962Z,56.00
2019-02-23T21:23:12.091Z,55.60
2019-02-23T21:25:49.251Z,55.60
2019-02-23T21:28:26.246Z,55.60
2019-02-23T21:31:03.281Z,55.30
2019-02-23T21:33:40.348Z,55.50
2019-02-23T21:36:17.573Z,74.50
2019-02-23T21:38:54.556Z,75.70
2019-02-23T21:41:31.617Z,57.90
2019-02-23T21:44:08.606Z,74.80
2019-02-23T21:46:45.664Z,74.70
2019-02-23T21:54:32.022Z,74.40
2019-02-23T21:57:09.168Z,73.20
2019-02-23T22:02:20.930Z,73.80
2019-02-23T22:04:58.266Z,74.80
2019-02-23T22:07:35.355Z,75.00
2019-02-23T22:12:47.450Z,76.00
2019-02-23T22:15:24.664Z,60.00
2019-02-23T22:18:01.854Z,59.70
2019-02-23T22:20:40.108Z,60.70
2019-02-23T22:23:17.356Z,60.40
2019-02-23T22:25:54.523Z,61.70
2019-02-23T22:28:31.715Z,64.70
2019-02-23T22:31:08.927Z,65.90
2019-02-23T22:33:46.224Z,67.70
2019-02-23T22:36:23.337Z,83.90
2019-02-23T22:39:00.449Z,64.60
2019-02-23T22:41:37.524Z,63.30
2019-02-23T22:44:14.587Z,62.90
2019-02-23T22:46:51.674Z,63.00
2019-02-23T22:49:29.380Z,63.00
2019-02-23T22:52:06.420Z,62.60
2019-02-23T22:54:43.613Z,61.90
2019-02-23T22:57:20.630Z,61.10
2019-02-23T22:59:57.580Z,61.20
2019-02-23T23:02:34.783Z,61.30
2019-02-23T23:05:11.987Z,61.60
2019-02-23T23:07:49.103Z,79.00
2019-02-23T23:10:26.212Z,75.60
2019-02-23T23:13:03.362Z,74.60
2019-02-23T23:15:40.404Z,58.80
2019-02-23T23:18:17.431Z,59.10
2019-02-23T23:20:54.481Z,59.60
2019-02-23T23:23:31.622Z,60.70
2019-02-23T23:26:08.723Z,78.20
2019-02-23T23:28:45.852Z,61.30
2019-02-23T23:31:22.891Z,79.70
2019-02-23T23:33:59.877Z,62.30
2019-02-23T23:36:37.034Z,61.50
2019-02-23T23:39:14.745Z,60.70
2019-02-23T23:41:51.726Z,58.90
2019-02-23T23:44:37.694Z,59.30
2019-02-23T23:47:14.814Z,58.70
2019-02-23T23:49:52.096Z,58.50
2019-02-23T23:52:29.280Z,59.00
2019-02-23T23:55:06.401Z,59.10
2019-02-23T23:57:43.417Z,58.80
